Time;durP1;ratioP1;P1;durP2;ratioP2;P2;SDS_P1;SDS_P2;PMS_P1;PMS_P2;Temp;Humidity;BMP_temperature;BMP_pressure;BME280_temperature;BME280_humidity;BME280_pressure;Samples;Min_cycle;Max_cycle;Signal;HPM_P1;HPM_P2
2021/05/17 00:02:20;;;;;;;7.83;4.20;;;9.00;99.90;;;;;;5014983;28;20219;-86
2021/05/17 00:04:46;;;;;;;5.90;4.67;;;9.00;99.90;;;;;;5008010;28;20774;-86
2021/05/17 00:07:12;;;;;;;4.53;3.47;;;9.20;99.90;;;;;;5010335;28;20284;-86
2021/05/17 00:09:38;;;;;;;7.70;4.70;;;9.20;99.90;;;;;;5009624;28;20806;-86
2021/05/17 00:12:06;;;;;;;18.17;5.03;;;9.30;99.90;;;;;;5032036;28;20226;-86
2021/05/17 00:14:33;;;;;;;4.93;3.73;;;9.40;99.90;;;;;;5008187;28;20187;-85
2021/05/17 00:16:59;;;;;;;6.97;3.97;;;9.30;99.90;;;;;;5018918;28;20192;-86
2021/05/17 00:19:25;;;;;;;5.17;3.87;;;9.30;99.90;;;;;;5008978;28;20215;-86
2021/05/17 00:21:51;;;;;;;10.70;5.10;;;9.20;99.90;;;;;;5000965;28;20238;-86
2021/05/17 00:24:18;;;;;;;11.93;4.80;;;9.30;99.90;;;;;;5029835;28;21158;-86
2021/05/17 00:26:44;;;;;;;4.93;3.50;;;9.30;99.90;;;;;;5053922;28;20677;-87
2021/05/17 00:29:10;;;;;;;4.80;4.33;;;9.30;99.90;;;;;;5031970;28;20209;-86
2021/05/17 00:31:38;;;;;;;7.43;3.50;;;9.30;99.90;;;;;;5031595;28;20713;-85
2021/05/17 00:34:05;;;;;;;10.70;4.80;;;9.40;99.90;;;;;;5038635;28;20271;-85
2021/05/17 00:36:32;;;;;;;5.63;3.63;;;9.40;99.90;;;;;;5046650;28;20221;-86
2021/05/17 00:38:59;;;;;;;9.53;5.53;;;9.40;99.90;;;;;;5040436;28;20222;-86
2021/05/17 00:41:26;;;;;;;5.53;3.43;;;9.40;99.90;;;;;;5026562;28;20301;-86
2021/05/17 00:43:53;;;;;;;6.50;3.77;;;9.40;99.90;;;;;;5029571;28;20219;-85
2021/05/17 00:46:20;;;;;;;7.20;5.40;;;9.30;99.90;;;;;;5011617;28;20226;-86
2021/05/17 00:48:46;;;;;;;3.67;3.20;;;9.20;99.90;;;;;;4986308;28;20219;-86
2021/05/17 00:51:12;;;;;;;3.47;3.03;;;9.10;99.90;;;;;;5010540;28;20215;-85
2021/05/17 00:53:38;;;;;;;7.07;4.73;;;9.10;99.90;;;;;;4988897;28;20183;-86
2021/05/17 00:56:05;;;;;;;5.40;3.87;;;9.10;99.90;;;;;;5006640;28;20196;-86
2021/05/17 00:58:32;;;;;;;7.03;3.40;;;9.10;99.90;;;;;;5007166;28;21065;-86
2021/05/17 01:00:59;;;;;;;7.87;3.03;;;9.10;99.90;;;;;;4990288;28;20580;-86
2021/05/17 01:03:25;;;;;;;5.97;3.57;;;9.10;99.90;;;;;;4991468;28;20277;-86
2021/05/17 01:05:52;;;;;;;4.27;3.90;;;9.10;99.90;;;;;;4996321;28;20226;-86
2021/05/17 01:08:21;;;;;;;5.40;2.87;;;9.20;99.90;;;;;;5013373;28;20198;-86
2021/05/17 01:10:48;;;;;;;5.83;2.83;;;9.20;99.90;;;;;;5029643;28;20229;-86
2021/05/17 01:13:14;;;;;;;4.50;2.83;;;9.20;99.90;;;;;;5012249;28;20301;-86
2021/05/17 01:15:40;;;;;;;7.83;3.43;;;9.20;99.90;;;;;;5017637;28;20228;-87
2021/05/17 01:18:06;;;;;;;4.97;2.90;;;9.20;99.90;;;;;;4993182;28;20767;-87
2021/05/17 01:20:33;;;;;;;6.27;4.00;;;9.20;99.90;;;;;;4992730;28;20180;-86
2021/05/17 01:25:52;;;;;;;3.90;3.00;;;9.20;99.90;;;;;;4989257;28;20599;-85
2021/05/17 01:28:24;;;;;;;3.20;2.43;;;9.20;99.90;;;;;;5005686;28;20325;-87
2021/05/17 01:30:53;;;;;;;4.00;3.10;;;9.20;99.90;;;;;;5011458;28;20230;-86
2021/05/17 01:33:19;;;;;;;6.80;3.60;;;9.20;99.90;;;;;;5007719;28;20307;-86
2021/05/17 01:35:49;;;;;;;4.40;3.40;;;9.20;99.90;;;;;;4978684;28;20213;-87
2021/05/17 01:38:19;;;;;;;4.47;2.53;;;9.30;99.90;;;;;;5005160;28;20199;-86
2021/05/17 01:40:48;;;;;;;6.30;3.57;;;9.30;99.90;;;;;;5020470;28;20223;-86
2021/05/17 01:43:16;;;;;;;7.23;3.43;;;9.30;99.90;;;;;;5005061;28;20231;-86
2021/05/17 01:45:43;;;;;;;4.77;3.33;;;9.30;99.90;;;;;;4992529;28;20207;-87
2021/05/17 01:48:10;;;;;;;7.57;3.23;;;9.20;99.90;;;;;;4966830;28;20230;-85
2021/05/17 01:50:37;;;;;;;4.97;4.17;;;9.30;99.90;;;;;;4995334;28;20196;-87
2021/05/17 01:53:04;;;;;;;11.00;4.70;;;9.30;99.90;;;;;;5013619;28;20286;-85
2021/05/17 01:55:30;;;;;;;7.50;4.37;;;9.30;99.90;;;;;;5012508;28;20219;-86
2021/05/17 01:58:20;;;;;;;5.70;3.60;;;9.40;99.90;;;;;;5020121;28;20577;-87
2021/05/17 02:00:46;;;;;;;6.87;4.20;;;9.40;99.90;;;;;;5017910;28;20215;-87
2021/05/17 02:03:11;;;;;;;7.17;4.23;;;9.50;99.90;;;;;;5007677;28;20224;-85
2021/05/17 02:05:37;;;;;;;6.80;5.20;;;9.50;99.90;;;;;;4983067;28;20192;-87
2021/05/17 02:08:04;;;;;;;6.57;4.23;;;9.50;99.90;;;;;;4977759;28;20247;-86
2021/05/17 02:10:31;;;;;;;8.03;4.23;;;9.60;99.90;;;;;;5006440;28;20226;-85
2021/05/17 02:12:58;;;;;;;3.67;2.73;;;9.60;99.90;;;;;;4983095;28;20277;-87
2021/05/17 02:15:25;;;;;;;10.67;4.33;;;9.60;99.90;;;;;;4981855;28;20767;-86
2021/05/17 02:18:06;;;;;;;5.93;3.53;;;9.70;99.90;;;;;;5007593;28;20227;-86
2021/05/17 02:20:34;;;;;;;4.63;3.50;;;9.70;99.90;;;;;;5000725;28;20183;-85
2021/05/17 02:23:01;;;;;;;7.57;4.10;;;9.70;99.90;;;;;;5011862;28;20264;-85
2021/05/17 02:25:28;;;;;;;10.33;4.70;;;9.70;99.90;;;;;;4993218;28;20342;-85
2021/05/17 02:27:55;;;;;;;5.23;3.57;;;9.80;99.90;;;;;;4992710;28;20247;-86
2021/05/17 02:30:22;;;;;;;5.97;4.30;;;9.70;99.90;;;;;;4990363;28;20246;-85
2021/05/17 02:32:47;;;;;;;5.37;3.83;;;9.70;99.90;;;;;;4992265;28;20219;-85
2021/05/17 02:35:14;;;;;;;7.90;4.30;;;9.80;99.90;;;;;;4991958;28;20252;-86
2021/05/17 02:37:40;;;;;;;4.80;3.33;;;9.80;99.90;;;;;;5022728;28;20334;-85
2021/05/17 02:40:06;;;;;;;4.03;2.90;;;9.80;99.90;;;;;;5010792;28;20222;-84
2021/05/17 02:42:35;;;;;;;5.27;3.37;;;9.80;99.90;;;;;;5039890;28;20266;-85
2021/05/17 02:45:04;;;;;;;6.43;2.83;;;9.80;99.90;;;;;;5042400;28;20348;-85
2021/05/17 02:47:34;;;;;;;5.03;3.23;;;9.80;99.90;;;;;;5050259;28;20193;-85
2021/05/17 02:50:00;;;;;;;5.87;3.57;;;9.80;99.90;;;;;;5023181;28;20275;-84
2021/05/17 02:52:32;;;;;;;3.30;3.00;;;9.80;99.90;;;;;;5038062;28;20237;-85
2021/05/17 02:55:08;;;;;;;3.27;2.27;;;9.80;99.90;;;;;;5028637;28;20734;-85
2021/05/17 02:57:58;;;;;;;4.47;3.40;;;9.80;99.90;;;;;;5041094;28;20760;-84
2021/05/17 03:00:25;;;;;;;7.90;3.43;;;9.80;99.90;;;;;;5034304;28;20614;-86
2021/05/17 03:02:57;;;;;;;6.00;3.23;;;9.80;99.90;;;;;;5022246;28;20325;-85
2021/05/17 03:05:23;;;;;;;3.93;3.53;;;9.90;99.90;;;;;;5024384;28;20198;-84
2021/05/17 03:07:59;;;;;;;4.57;3.73;;;9.90;99.90;;;;;;5032181;28;20729;-84
2021/05/17 03:10:27;;;;;;;7.83;3.53;;;10.00;99.90;;;;;;5030581;28;20222;-85
2021/05/17 03:12:56;;;;;;;7.13;3.87;;;10.00;99.90;;;;;;5047365;28;20272;-85
2021/05/17 03:15:26;;;;;;;4.70;3.43;;;10.10;99.90;;;;;;5050164;28;20226;-85
2021/05/17 03:17:54;;;;;;;9.13;4.07;;;10.10;99.90;;;;;;5027136;28;20249;-85
2021/05/17 03:20:21;;;;;;;5.63;3.33;;;10.10;99.90;;;;;;5021447;28;20187;-85
2021/05/17 03:22:50;;;;;;;7.33;3.80;;;10.10;99.90;;;;;;5028896;28;20299;-86
2021/05/17 03:25:20;;;;;;;4.60;3.73;;;10.10;99.90;;;;;;5038152;28;20250;-86
2021/05/17 03:27:46;;;;;;;5.23;3.27;;;10.10;99.90;;;;;;5031364;28;20237;-85
2021/05/17 03:30:12;;;;;;;5.73;2.97;;;10.10;99.90;;;;;;5035005;28;20627;-86
2021/05/17 03:32:38;;;;;;;8.30;4.10;;;10.20;99.90;;;;;;5056564;28;20204;-86
2021/05/17 03:35:04;;;;;;;5.70;3.73;;;10.20;99.90;;;;;;5043556;28;20189;-86
2021/05/17 03:37:30;;;;;;;5.17;4.20;;;10.20;99.90;;;;;;5048973;28;20217;-86
2021/05/17 03:39:56;;;;;;;6.13;2.97;;;10.20;99.90;;;;;;5025027;28;20224;-86
2021/05/17 03:42:22;;;;;;;6.30;3.60;;;10.20;99.90;;;;;;5051257;28;20252;-85
2021/05/17 03:44:48;;;;;;;4.13;3.67;;;10.20;99.90;;;;;;5048473;28;20291;-85
2021/05/17 03:47:13;;;;;;;4.27;2.43;;;10.10;99.90;;;;;;5019341;28;20608;-86
2021/05/17 03:49:39;;;;;;;5.17;3.67;;;10.20;99.90;;;;;;5052662;28;20220;-86
2021/05/17 03:52:05;;;;;;;4.40;3.60;;;10.10;99.90;;;;;;5002061;28;20737;-85
2021/05/17 03:54:31;;;;;;;2.47;2.27;;;10.00;99.90;;;;;;5055472;28;20217;-85
2021/05/17 03:56:58;;;;;;;5.17;3.17;;;10.10;99.90;;;;;;5017817;28;20213;-85
2021/05/17 03:59:24;;;;;;;6.53;4.00;;;10.10;99.90;;;;;;5028910;28;20190;-86
2021/05/17 04:01:50;;;;;;;5.13;3.07;;;10.10;99.90;;;;;;5060552;28;20221;-86
2021/05/17 04:04:20;;;;;;;5.77;3.53;;;10.10;99.90;;;;;;5041199;28;20737;-85
2021/05/17 04:06:50;;;;;;;3.43;3.03;;;10.10;99.90;;;;;;5033755;28;20241;-85
2021/05/17 04:14:45;;;;;;;4.60;3.97;;;10.20;99.90;;;;;;5039565;28;20230;-85
2021/05/17 04:17:11;;;;;;;5.13;3.47;;;10.20;99.90;;;;;;5025554;28;20318;-86
2021/05/17 04:19:36;;;;;;;4.57;3.80;;;10.30;99.90;;;;;;5041607;28;20871;-86
2021/05/17 04:22:02;;;;;;;6.53;3.93;;;10.30;99.90;;;;;;5036115;28;20243;-86
2021/05/17 04:24:28;;;;;;;7.83;4.27;;;10.40;99.90;;;;;;5030077;28;20237;-85
2021/05/17 04:26:54;;;;;;;4.33;3.63;;;10.40;99.90;;;;;;5021067;28;20701;-86
2021/05/17 04:29:20;;;;;;;6.40;4.63;;;10.40;99.90;;;;;;5035498;28;20189;-87
2021/05/17 04:31:47;;;;;;;6.13;4.53;;;10.40;99.90;;;;;;5026887;28;20221;-87
2021/05/17 04:34:13;;;;;;;4.30;3.90;;;10.40;99.90;;;;;;5017935;28;20237;-87
2021/05/17 04:36:39;;;;;;;7.60;4.50;;;10.40;99.90;;;;;;5015905;28;20244;-85
2021/05/17 04:39:05;;;;;;;10.03;3.90;;;10.40;99.90;;;;;;5024549;28;20225;-86
2021/05/17 04:41:31;;;;;;;6.17;4.23;;;10.40;99.90;;;;;;5056033;28;20212;-86
2021/05/17 04:43:56;;;;;;;12.07;4.13;;;10.40;99.90;;;;;;5000430;28;20242;-87
2021/05/17 04:46:23;;;;;;;6.83;4.40;;;10.50;99.90;;;;;;5036290;28;20302;-86
2021/05/17 04:48:49;;;;;;;4.70;3.63;;;10.50;99.90;;;;;;5008069;28;20218;-86
2021/05/17 04:51:20;;;;;;;5.23;3.43;;;10.50;99.90;;;;;;5046101;28;20744;-84
2021/05/17 04:53:46;;;;;;;6.70;3.87;;;10.50;99.90;;;;;;5049810;28;20318;-86
2021/05/17 04:56:13;;;;;;;5.53;3.47;;;10.60;99.90;;;;;;5045170;28;20260;-85
2021/05/17 04:58:39;;;;;;;5.60;3.57;;;10.60;99.90;;;;;;5039735;28;20760;-87
2021/05/17 05:01:05;;;;;;;5.13;3.97;;;10.80;99.90;;;;;;5001189;28;20226;-87
2021/05/17 05:03:31;;;;;;;4.83;3.93;;;10.80;99.90;;;;;;5047516;28;20416;-86
2021/05/17 05:05:58;;;;;;;4.70;3.00;;;10.90;99.90;;;;;;5031175;28;20214;-87
2021/05/17 05:08:24;;;;;;;8.20;3.70;;;10.80;99.90;;;;;;5033108;28;20191;-85
2021/05/17 05:10:50;;;;;;;3.03;2.73;;;10.70;99.90;;;;;;5030832;28;20271;-87
2021/05/17 05:13:16;;;;;;;7.73;3.00;;;10.70;99.90;;;;;;5034023;28;20221;-87
2021/05/17 05:15:42;;;;;;;5.20;2.77;;;10.70;99.90;;;;;;5047084;28;20221;-86
2021/05/17 05:18:07;;;;;;;5.43;3.03;;;10.60;99.90;;;;;;5034905;28;20271;-86
2021/05/17 05:20:33;;;;;;;4.10;2.60;;;10.60;99.90;;;;;;5043548;28;20231;-86
2021/05/17 05:23:01;;;;;;;3.03;2.13;;;10.50;99.90;;;;;;5055165;28;20229;-86
2021/05/17 05:25:36;;;;;;;6.00;2.83;;;10.50;99.90;;;;;;5051469;28;20221;-87
2021/05/17 05:28:04;;;;;;;3.50;2.80;;;10.50;99.90;;;;;;5043378;28;20257;-85
2021/05/17 05:33:17;;;;;;;4.07;2.30;;;10.60;99.90;;;;;;5036430;28;20216;-87
2021/05/17 05:35:43;;;;;;;3.07;1.97;;;10.60;99.90;;;;;;5036801;28;20259;-85
2021/05/17 05:38:10;;;;;;;2.90;2.53;;;10.70;99.90;;;;;;5036080;28;20189;-86
2021/05/17 05:40:36;;;;;;;1.63;1.53;;;10.60;99.90;;;;;;5055415;28;20221;-84
2021/05/17 05:43:02;;;;;;;2.30;2.10;;;10.70;99.90;;;;;;5020785;28;20296;-83
2021/05/17 05:45:28;;;;;;;1.63;1.53;;;10.70;99.90;;;;;;5020482;28;20220;-86
2021/05/17 05:47:54;;;;;;;3.97;1.70;;;10.80;99.90;;;;;;5029677;28;20302;-84
2021/05/17 05:50:20;;;;;;;1.47;1.30;;;11.20;99.90;;;;;;5012782;28;20275;-85
2021/05/17 05:52:46;;;;;;;1.80;1.70;;;11.40;99.90;;;;;;4989703;28;20229;-84
2021/05/17 05:55:13;;;;;;;2.17;2.00;;;11.80;99.90;;;;;;5017224;28;20223;-86
2021/05/17 05:57:42;;;;;;;2.17;1.73;;;11.70;99.90;;;;;;5006404;28;20587;-87
2021/05/17 06:00:15;;;;;;;3.03;1.67;;;11.60;99.90;;;;;;5009572;28;20222;-86
2021/05/17 06:02:41;;;;;;;3.87;2.43;;;11.50;99.90;;;;;;5009596;28;20218;-85
2021/05/17 06:05:07;;;;;;;2.10;1.93;;;11.50;99.90;;;;;;5012608;28;20198;-86
2021/05/17 06:07:33;;;;;;;2.67;1.60;;;11.60;99.90;;;;;;5004349;28;20334;-86
2021/05/17 06:09:59;;;;;;;2.00;1.63;;;11.60;99.90;;;;;;4999782;28;20227;-86
2021/05/17 06:12:25;;;;;;;2.33;1.80;;;11.40;99.90;;;;;;4992023;28;20218;-86
2021/05/17 06:15:03;;;;;;;1.13;1.03;;;11.50;99.90;;;;;;4989804;28;20227;-87
2021/05/17 06:17:29;;;;;;;1.40;1.30;;;11.40;99.90;;;;;;4998689;28;20196;-86
2021/05/17 06:19:55;;;;;;;2.20;1.90;;;11.60;99.90;;;;;;4989525;28;20230;-85
2021/05/17 06:22:22;;;;;;;2.00;1.33;;;11.70;99.90;;;;;;5003893;28;20230;-85
2021/05/17 06:24:48;;;;;;;1.67;1.57;;;12.00;99.90;;;;;;5006996;28;20223;-86
2021/05/17 06:27:15;;;;;;;2.93;1.73;;;12.10;99.90;;;;;;4974042;28;20227;-87
2021/05/17 06:29:43;;;;;;;3.13;1.73;;;12.10;99.90;;;;;;4989553;28;20195;-86
2021/05/17 06:32:10;;;;;;;4.33;2.47;;;12.20;99.90;;;;;;5026820;28;20201;-86
2021/05/17 06:34:39;;;;;;;2.40;1.80;;;12.60;99.90;;;;;;5008374;28;20377;-87
2021/05/17 06:37:04;;;;;;;3.13;2.83;;;12.50;99.90;;;;;;4991534;28;20262;-84
2021/05/17 06:39:30;;;;;;;3.33;1.80;;;12.30;99.90;;;;;;5000903;28;20312;-86
2021/05/17 06:41:56;;;;;;;5.43;2.60;;;12.50;99.90;;;;;;5012624;28;20337;-86
2021/05/17 06:44:22;;;;;;;3.37;2.00;;;12.60;99.90;;;;;;5051875;28;20225;-86
2021/05/17 06:46:48;;;;;;;3.83;1.87;;;13.30;99.90;;;;;;5031671;28;20315;-86
2021/05/17 06:49:14;;;;;;;2.20;2.00;;;13.90;99.90;;;;;;5049742;28;20218;-85
2021/05/17 06:51:40;;;;;;;2.53;1.60;;;14.90;99.90;;;;;;5049829;28;20224;-85
2021/05/17 06:54:08;;;;;;;3.10;2.00;;;16.50;99.90;;;;;;5029654;28;20225;-86
2021/05/17 06:59:04;;;;;;;2.07;1.77;;;15.30;99.90;;;;;;5032942;28;20198;-87
2021/05/17 07:01:30;;;;;;;2.27;1.67;;;14.70;99.90;;;;;;5028810;28;20221;-86
2021/05/17 07:03:57;;;;;;;2.57;1.80;;;14.20;99.90;;;;;;5047936;28;20233;-85
2021/05/17 07:06:25;;;;;;;2.50;1.47;;;14.10;99.90;;;;;;5029441;28;20265;-84
2021/05/17 07:12:03;;;;;;;1.87;1.37;;;13.90;99.90;;;;;;5033231;28;20193;-85
2021/05/17 07:14:29;;;;;;;1.67;1.50;;;14.00;99.90;;;;;;5025511;28;20191;-85
2021/05/17 07:16:55;;;;;;;3.23;1.60;;;14.00;99.90;;;;;;5010821;28;20198;-87
2021/05/17 07:19:20;;;;;;;2.00;1.80;;;13.80;99.90;;;;;;5032588;28;20224;-84
2021/05/17 07:24:31;;;;;;;2.33;1.93;;;14.20;99.90;;;;;;5034129;28;20218;-86
2021/05/17 07:26:57;;;;;;;2.40;2.10;;;14.00;99.90;;;;;;5025973;28;20222;-85
2021/05/17 07:29:23;;;;;;;3.40;2.70;;;14.50;99.90;;;;;;5020161;28;20248;-85
2021/05/17 07:31:49;;;;;;;2.83;2.03;;;15.40;99.90;;;;;;5053812;28;20225;-85
2021/05/17 07:34:17;;;;;;;2.87;2.40;;;15.30;99.90;;;;;;5039149;28;20261;-86
2021/05/17 07:36:46;;;;;;;2.37;1.80;;;15.40;99.90;;;;;;5040627;28;20229;-85
2021/05/17 07:39:12;;;;;;;2.93;1.77;;;15.60;99.90;;;;;;5042198;28;20260;-85
2021/05/17 07:41:38;;;;;;;3.17;2.00;;;14.90;99.90;;;;;;5023807;28;20363;-86
2021/05/17 07:44:04;;;;;;;3.57;1.87;;;15.30;99.90;;;;;;5020875;28;20263;-85
2021/05/17 07:46:29;;;;;;;3.57;2.00;;;15.90;99.90;;;;;;5055352;28;20223;-88
2021/05/17 07:51:39;;;;;;;3.43;2.20;;;16.90;99.90;;;;;;5031493;28;20242;-87
2021/05/17 07:54:05;;;;;;;2.73;2.17;;;17.60;99.90;;;;;;5052370;28;20736;-88
2021/05/17 07:56:31;;;;;;;2.97;2.30;;;17.90;99.90;;;;;;5054872;28;20193;-88
2021/05/17 07:58:57;;;;;;;3.93;2.83;;;19.10;99.90;;;;;;5048419;28;20190;-89
2021/05/17 08:01:23;;;;;;;1.90;1.80;;;19.20;99.90;;;;;;5017489;28;20249;-88
2021/05/17 08:03:50;;;;;;;3.40;2.43;;;18.40;99.90;;;;;;5036219;28;20226;-86
2021/05/17 08:06:16;;;;;;;2.70;2.50;;;17.60;99.90;;;;;;5002997;28;20222;-89
2021/05/17 08:08:42;;;;;;;4.07;2.77;;;18.50;99.90;;;;;;5016631;28;20217;-88
2021/05/17 08:11:08;;;;;;;2.83;2.17;;;18.90;99.90;;;;;;5035976;28;20961;-89
2021/05/17 08:13:33;;;;;;;3.60;2.33;;;18.10;99.90;;;;;;5016406;28;20679;-88
2021/05/17 08:15:59;;;;;;;4.03;2.30;;;18.40;99.90;;;;;;5033518;28;20222;-88
2021/05/17 08:18:25;;;;;;;3.10;2.57;;;18.10;99.90;;;;;;5028052;28;20703;-88
2021/05/17 08:20:51;;;;;;;3.07;2.10;;;17.10;99.90;;;;;;5022533;28;20217;-89
2021/05/17 08:23:17;;;;;;;3.17;2.43;;;16.50;99.90;;;;;;5030505;28;21260;-88
2021/05/17 08:25:44;;;;;;;3.03;2.50;;;16.30;99.90;;;;;;5044388;28;20218;-87
2021/05/17 08:28:11;;;;;;;3.00;2.40;;;16.20;99.90;;;;;;5059345;28;20257;-87
2021/05/17 08:30:46;;;;;;;4.27;2.30;;;16.20;99.90;;;;;;5042524;28;20222;-88
2021/05/17 08:33:13;;;;;;;4.73;2.47;;;16.10;99.90;;;;;;5029458;28;20225;-87
2021/05/17 08:35:40;;;;;;;4.37;2.47;;;15.70;99.90;;;;;;5033694;28;20229;-87
2021/05/17 08:38:07;;;;;;;2.40;2.20;;;15.10;99.90;;;;;;5044318;28;20194;-89
2021/05/17 08:40:38;;;;;;;3.23;2.57;;;14.90;99.90;;;;;;5031084;28;20207;-87
2021/05/17 08:43:04;;;;;;;3.23;2.23;;;14.80;99.90;;;;;;5032267;28;20245;-88
2021/05/17 08:45:31;;;;;;;2.57;2.30;;;14.50;99.90;;;;;;5030250;28;20244;-86
2021/05/17 08:47:57;;;;;;;2.73;2.27;;;14.60;99.90;;;;;;5037105;28;20230;-86
2021/05/17 08:50:23;;;;;;;2.87;1.93;;;14.60;99.90;;;;;;5029360;28;20662;-86
2021/05/17 08:52:48;;;;;;;3.67;1.87;;;15.20;99.90;;;;;;5023034;28;20218;-87
2021/05/17 08:55:18;;;;;;;2.50;2.27;;;15.10;99.90;;;;;;5025242;28;20213;-87
2021/05/17 08:57:45;;;;;;;2.20;2.00;;;15.00;99.90;;;;;;5029882;28;20649;-86
2021/05/17 09:00:13;;;;;;;2.53;2.30;;;15.20;99.90;;;;;;5027338;28;20218;-88
2021/05/17 09:02:39;;;;;;;4.37;1.90;;;15.50;99.90;;;;;;5052205;28;20358;-88
2021/05/17 09:05:23;;;;;;;2.17;1.97;;;15.70;99.90;;;;;;5035777;28;20984;-88
2021/05/17 09:07:54;;;;;;;2.00;1.70;;;15.90;99.90;;;;;;5027149;28;20252;-86
2021/05/17 09:10:25;;;;;;;2.50;2.10;;;15.90;99.90;;;;;;5035472;28;20627;-88
2021/05/17 09:13:07;;;;;;;2.77;1.93;;;16.00;99.90;;;;;;5035264;28;20218;-85
2021/05/17 09:15:42;;;;;;;2.73;2.53;;;16.00;99.90;;;;;;5051614;28;20276;-86
2021/05/17 09:18:14;;;;;;;3.20;2.30;;;15.90;99.90;;;;;;5051283;28;20217;-86
2021/05/17 09:20:42;;;;;;;2.73;2.20;;;15.40;99.90;;;;;;5044083;28;20224;-86
2021/05/17 09:23:17;;;;;;;3.47;2.13;;;15.20;99.90;;;;;;5054189;28;20209;-87
2021/05/17 09:26:02;;;;;;;3.03;2.17;;;14.90;99.90;;;;;;5042057;28;20315;-85
2021/05/17 09:28:34;;;;;;;3.23;2.43;;;14.20;99.90;;;;;;5034612;28;20221;-86
2021/05/17 09:31:04;;;;;;;2.63;2.40;;;14.20;99.90;;;;;;5033960;28;20243;-86
2021/05/17 09:33:47;;;;;;;3.67;2.27;;;14.00;99.90;;;;;;5042563;28;20224;-85
2021/05/17 09:36:40;;;;;;;2.00;1.80;;;13.90;99.90;;;;;;5033859;28;20209;-87
2021/05/17 09:39:16;;;;;;;4.33;2.43;;;13.70;99.90;;;;;;5058569;28;20229;-87
2021/05/17 09:41:45;;;;;;;2.97;2.50;;;13.70;99.90;;;;;;5042461;28;20299;-85
2021/05/17 09:44:15;;;;;;;5.83;3.10;;;13.80;99.90;;;;;;5037782;28;20241;-87
2021/05/17 09:47:20;;;;;;;4.40;2.53;;;13.90;99.90;;;;;;5050396;28;20213;-85
2021/05/17 09:49:49;;;;;;;4.10;2.53;;;13.70;99.90;;;;;;5053249;28;20220;-87
2021/05/17 09:52:29;;;;;;;2.33;2.13;;;13.60;99.90;;;;;;5034487;28;20217;-87
2021/05/17 09:55:01;;;;;;;3.40;2.93;;;13.50;99.90;;;;;;5030466;28;20263;-88
2021/05/17 09:57:44;;;;;;;4.53;3.07;;;13.40;99.90;;;;;;5032976;28;20241;-88
2021/05/17 10:00:16;;;;;;;3.53;2.27;;;13.40;99.90;;;;;;5018116;28;20222;-86
2021/05/17 10:02:44;;;;;;;3.60;3.07;;;13.40;99.90;;;;;;5029954;28;20392;-86
2021/05/17 10:05:14;;;;;;;3.97;2.83;;;13.40;99.90;;;;;;5016297;28;20191;-86
2021/05/17 10:07:45;;;;;;;4.77;2.93;;;13.40;99.90;;;;;;5057458;28;20224;-89
2021/05/17 10:10:11;;;;;;;4.13;3.00;;;13.40;99.90;;;;;;5038236;28;20237;-86
2021/05/17 10:12:38;;;;;;;4.53;3.00;;;13.20;99.90;;;;;;5031058;28;20724;-87
2021/05/17 10:15:11;;;;;;;4.60;3.23;;;13.20;99.90;;;;;;5047714;28;20214;-85
2021/05/17 10:17:37;;;;;;;3.37;2.57;;;13.20;99.90;;;;;;5039705;28;20171;-86
2021/05/17 10:20:09;;;;;;;5.67;4.03;;;13.30;99.90;;;;;;5029473;28;20178;-85
2021/05/17 10:22:35;;;;;;;4.30;3.37;;;13.30;99.90;;;;;;5044059;28;20609;-86
2021/05/17 10:25:05;;;;;;;5.43;3.00;;;13.40;99.90;;;;;;5043142;28;20427;-86
2021/05/17 10:27:31;;;;;;;8.17;3.70;;;13.40;99.90;;;;;;5034019;28;20273;-87
2021/05/17 10:30:07;;;;;;;5.27;3.83;;;13.30;99.90;;;;;;5026218;28;20295;-86
2021/05/17 10:32:54;;;;;;;4.27;3.30;;;13.30;99.90;;;;;;5052457;28;20185;-86
2021/05/17 10:35:30;;;;;;;4.07;3.47;;;13.40;99.90;;;;;;5044647;28;20177;-87
2021/05/17 10:38:19;;;;;;;4.10;2.93;;;13.20;99.90;;;;;;5033952;28;20733;-87
2021/05/17 10:40:48;;;;;;;4.70;3.33;;;13.30;99.90;;;;;;5048949;28;20249;-87
2021/05/17 10:48:28;;;;;;;5.20;3.50;;;13.40;99.90;;;;;;5035665;28;20238;-86
2021/05/17 10:51:17;;;;;;;5.67;2.63;;;13.40;99.90;;;;;;5026165;28;20224;-86
2021/05/17 10:53:58;;;;;;;5.77;3.77;;;13.50;99.90;;;;;;5049902;28;20209;-86
2021/05/17 10:56:59;;;;;;;2.93;2.57;;;13.50;99.90;;;;;;5052974;28;20673;-86
2021/05/17 11:02:32;;;;;;;3.37;2.23;;;13.40;99.90;;;;;;5026765;28;20225;-86
2021/05/17 11:05:18;;;;;;;3.40;2.90;;;13.30;99.90;;;;;;5061600;28;20225;-86
2021/05/17 11:08:04;;;;;;;7.80;3.73;;;13.50;99.90;;;;;;5037451;28;20304;-86
2021/05/17 11:10:37;;;;;;;3.67;2.87;;;13.60;99.90;;;;;;5057010;28;20257;-87
2021/05/17 11:13:11;;;;;;;5.17;3.17;;;13.90;99.90;;;;;;5042981;28;20219;-85
2021/05/17 11:15:54;;;;;;;6.10;3.50;;;14.10;99.90;;;;;;5039904;28;21039;-89
2021/05/17 11:18:23;;;;;;;5.07;2.90;;;14.60;99.90;;;;;;5040286;28;20682;-88
2021/05/17 11:20:51;;;;;;;3.60;2.60;;;15.20;99.90;;;;;;5031408;28;20263;-87
2021/05/17 11:23:18;;;;;;;2.00;1.80;;;16.00;99.90;;;;;;5052018;28;20204;-85
2021/05/17 11:25:50;;;;;;;2.57;1.90;;;16.50;99.90;;;;;;5037442;28;20595;-84
2021/05/17 11:28:38;;;;;;;1.33;1.20;;;17.00;99.90;;;;;;5038939;28;20226;-87
2021/05/17 11:31:16;;;;;;;4.23;1.97;;;17.00;99.90;;;;;;5020571;28;20273;-88
2021/05/17 11:33:57;;;;;;;3.23;1.67;;;17.10;99.90;;;;;;5053436;28;20236;-88
2021/05/17 11:36:26;;;;;;;3.03;2.53;;;17.60;99.90;;;;;;5033443;28;20225;-88
2021/05/17 11:39:15;;;;;;;3.87;2.23;;;17.50;99.90;;;;;;5049257;28;20233;-86
2021/05/17 11:41:46;;;;;;;4.63;2.43;;;17.10;99.90;;;;;;5051053;28;20190;-87
2021/05/17 11:44:17;;;;;;;5.07;2.37;;;17.30;99.90;;;;;;5043602;28;20244;-88
2021/05/17 11:46:49;;;;;;;4.43;2.47;;;17.30;99.90;;;;;;5050090;28;20361;-86
2021/05/17 11:49:18;;;;;;;2.10;1.90;;;16.00;99.90;;;;;;5043994;28;20224;-88
2021/05/17 11:51:49;;;;;;;2.87;1.60;;;16.00;99.90;;;;;;5042634;28;20668;-87
2021/05/17 11:54:16;;;;;;;2.63;1.83;;;16.10;99.90;;;;;;5034323;28;20217;-90
2021/05/17 11:56:44;;;;;;;2.37;1.70;;;16.40;99.90;;;;;;5048761;28;20191;-90
2021/05/17 11:59:16;;;;;;;3.30;1.93;;;16.30;99.90;;;;;;5044286;28;20208;-90
2021/05/17 12:01:45;;;;;;;2.00;1.80;;;16.40;99.90;;;;;;5031177;28;20214;-87
2021/05/17 12:04:29;;;;;;;2.57;1.60;;;16.40;99.90;;;;;;5047886;28;20230;-89
2021/05/17 12:06:56;;;;;;;1.47;1.37;;;16.00;99.90;;;;;;5056544;28;20228;-89
2021/05/17 12:09:43;;;;;;;2.90;2.17;;;15.90;99.90;;;;;;5031515;28;20215;-90
2021/05/17 12:12:29;;;;;;;1.97;1.60;;;16.30;99.90;;;;;;5033696;28;20205;-90
2021/05/17 12:14:58;;;;;;;2.47;1.87;;;16.30;99.90;;;;;;5025272;28;20221;-88
2021/05/17 12:17:28;;;;;;;1.60;1.30;;;16.10;99.90;;;;;;5035821;28;20182;-88
2021/05/17 12:19:57;;;;;;;2.30;1.40;;;15.80;99.90;;;;;;5062233;28;20336;-90
2021/05/17 12:22:35;;;;;;;1.23;1.03;;;15.80;99.90;;;;;;5035815;28;20225;-89
2021/05/17 12:25:04;;;;;;;1.63;1.20;;;15.80;99.90;;;;;;5060339;28;20335;-91
2021/05/17 12:27:30;;;;;;;2.00;1.47;;;16.00;99.90;;;;;;5043588;28;20214;-90
2021/05/17 12:30:05;;;;;;;1.57;1.10;;;16.20;99.90;;;;;;5026174;28;20221;-88
2021/05/17 12:32:36;;;;;;;2.70;1.30;;;16.30;99.90;;;;;;5042815;28;20284;-92
2021/05/17 12:35:09;;;;;;;3.70;2.50;;;16.20;99.90;;;;;;5060584;28;20194;-89
2021/05/17 12:37:49;;;;;;;6.63;2.27;;;16.10;99.90;;;;;;5056952;28;20263;-88
2021/05/17 12:40:37;;;;;;;3.30;3.00;;;16.30;99.90;;;;;;5053300;28;20288;-87
2021/05/17 12:43:21;;;;;;;3.17;2.67;;;16.00;99.90;;;;;;5022988;28;20636;-87
2021/05/17 12:45:50;;;;;;;5.97;3.63;;;16.00;99.90;;;;;;5058167;28;20245;-88
2021/05/17 12:48:26;;;;;;;4.27;2.87;;;16.20;99.90;;;;;;5034646;28;20213;-91
2021/05/17 12:50:56;;;;;;;6.50;2.90;;;15.90;99.90;;;;;;5037322;28;20347;-90
2021/05/17 12:53:30;;;;;;;4.60;2.83;;;15.70;99.90;;;;;;5052954;28;20641;-90
2021/05/17 12:56:00;;;;;;;4.83;3.77;;;16.00;99.90;;;;;;5034925;28;20224;-88
2021/05/17 12:58:37;;;;;;;4.20;3.40;;;16.40;99.90;;;;;;5036286;28;20580;-90
2021/05/17 13:01:16;;;;;;;10.83;4.53;;;16.40;99.90;;;;;;5053657;28;21274;-89
2021/05/17 13:03:46;;;;;;;8.07;4.50;;;16.20;99.90;;;;;;5024897;28;20233;-92
2021/05/17 13:06:24;;;;;;;6.70;3.90;;;16.30;99.90;;;;;;5025493;28;20218;-89
2021/05/17 13:09:13;;;;;;;5.33;3.67;;;16.10;99.90;;;;;;5048924;28;20221;-85
2021/05/17 13:11:41;;;;;;;6.73;4.80;;;16.10;99.90;;;;;;5020013;28;20190;-90
2021/05/17 13:14:23;;;;;;;9.17;4.33;;;16.30;99.90;;;;;;5035175;28;21033;-92
2021/05/17 13:16:49;;;;;;;7.50;4.37;;;16.40;99.90;;;;;;5032373;28;20218;-88
2021/05/17 13:30:14;;;;;;;4.97;3.47;;;15.80;99.90;;;;;;5035262;28;20230;-89
2021/05/17 13:32:42;;;;;;;9.13;4.37;;;15.50;99.90;;;;;;5001878;28;20191;-89
2021/05/17 13:35:11;;;;;;;10.37;4.27;;;15.70;99.90;;;;;;5035703;28;20719;-87
2021/05/17 13:37:37;;;;;;;9.67;5.20;;;15.90;99.90;;;;;;5019933;28;20218;-90
2021/05/17 13:40:09;;;;;;;11.83;6.03;;;16.10;99.90;;;;;;5033088;28;20218;-90
2021/05/17 13:42:35;;;;;;;12.13;5.93;;;16.10;99.90;;;;;;5049771;28;20249;-88